Pembroke Pines, FL (33025)

11:54 PM EDT on August 31, 2016 (GMT -0400)
APRSWXNET | | Change Station

Elev 6 ft 25.99 °N, 80.28 °W | Updated 2 days ago

Cloudy
Cloudy
80 °F
Feels Like 86 °F
N
7
Wind Variable Wind from SE
Gusts 12 mph

Today
High -- | Low -- °F
--% Chance of Precip.
Yesterday
High -- | Low -- °F
Precip. -- in
Pressure 29.99 in
Visibility 4.0 miles
Clouds Mostly Cloudy 3000 ft
Mostly Cloudy 5500 ft
Overcast 7500 ft
Heat Index 86 °F
Dew Point 75 °F
Humidity 87%
Rainfall in
Snow Depth Not available.
7:01 AM 7:41 PM
Waning Crescent, 0% visible
SPECI KOPF 010311Z AUTO 23011G28KT 4SM VCTS +RA BKN030 BKN055 OVC075 24/21 A2999 RMK AO2 PK WND 26028/0306 LTG DSNT S AND SW P0026 T02440206
Pressure 29.99 in
Visibility 4.0 miles
Clouds Mostly Cloudy 3000 ft
Mostly Cloudy 5500 ft
Overcast 7500 ft
Heat Index 86 °F
Dew Point 75 °F
Humidity 87%
Rainfall in
Snow Depth Not available.
7:01 AM 7:41 PM
Waning Crescent, 0% visible
SPECI KOPF 010311Z AUTO 23011G28KT 4SM VCTS +RA BKN030 BKN055 OVC075 24/21 A2999 RMK AO2 PK WND 26028/0306 LTG DSNT S AND SW P0026 T02440206

10-Day Weather Forecast

Almanac

Astronomy

Aug. 31, 2016 Rise Set
Actual Time
Civil Twilight
Nautical Twilight
Astronomical Twilight
Moon
Length of Visible Light
Length of Day
Tomorrow will be .
, % of the Moon is Illuminated

Today's Extremes

State Highs State Lows

Community

WunderPhotos

Upload Photos

1,936,291 photos uploaded!

WunderBlog® & News

Nearby

Air Quality

  Air Quality AQ Index Pollutant
Not available.

Snow Depth

Station Depth Elevation

Earthquake Activity

City Distance Mag. Time & Date
Minimum magnitude displayed is 2.5.

Coastal Water Temperatures

Place Temperature

Stations

Nearby Weather Stations

Station Location Temp. Windchill Dew Point Humidity Wind Precip. Elev Updated Type
                   

Watches & Warnings

There are currently no watches in effect.